Time;durP1;ratioP1;P1;durP2;ratioP2;P2;SDS_P1;SDS_P2;PMS_P1;PMS_P2;Temp;Humidity;BMP_temperature;BMP_pressure;BME280_temperature;BME280_humidity;BME280_pressure;Samples;Min_cycle;Max_cycle;Signal;HPM_P1;HPM_P2
2023/06/19 00:00:45;;;;;;;9.85;5.55;;;;;;;;;;6305495;22;20236;-87
2023/06/19 00:03:51;;;;;;;9.75;5.78;;;;;;;;;;6304915;22;20502;-90
2023/06/19 00:06:56;;;;;;;9.20;5.40;;;;;;;;;;6305684;22;20303;-89
2023/06/19 00:10:02;;;;;;;9.98;5.07;;;;;;;;;;6304394;22;20149;-88
2023/06/19 00:13:08;;;;;;;11.73;5.85;;;;;;;;;;6303958;22;20487;-89
2023/06/19 00:16:55;;;;;;;10.93;5.72;;;;;;;;;;6321214;22;20166;-88
2023/06/19 00:20:07;;;;;;;9.65;5.65;;;;;;;;;;6303306;22;20283;-91
2023/06/19 00:23:14;;;;;;;11.48;6.03;;;;;;;;;;6304266;22;20233;-91
2023/06/19 00:26:22;;;;;;;9.70;5.47;;;;;;;;;;6302945;22;20169;-90
2023/06/19 00:29:28;;;;;;;8.45;5.45;;;;;;;;;;6302900;22;20169;-89
2023/06/19 00:32:45;;;;;;;10.00;5.53;;;;;;;;;;6303432;22;20372;-93
2023/06/19 00:35:51;;;;;;;11.60;5.45;;;;;;;;;;6300226;22;20706;-89
2023/06/19 00:38:57;;;;;;;12.55;5.80;;;;;;;;;;6302011;22;20149;-90
2023/06/19 00:42:03;;;;;;;11.90;5.93;;;;;;;;;;6300616;22;20622;-88
2023/06/19 00:45:09;;;;;;;10.23;5.70;;;;;;;;;;6301834;22;20233;-90
2023/06/19 00:48:14;;;;;;;10.68;5.65;;;;;;;;;;6302138;22;20165;-90
2023/06/19 00:51:19;;;;;;;9.55;5.90;;;;;;;;;;6301520;22;20215;-90
2023/06/19 00:54:25;;;;;;;9.82;6.03;;;;;;;;;;6303044;22;20153;-92
2023/06/19 00:57:32;;;;;;;13.13;5.75;;;;;;;;;;6302844;22;20232;-89
2023/06/19 01:00:37;;;;;;;11.30;6.00;;;;;;;;;;6304168;22;20161;-89
2023/06/19 01:03:42;;;;;;;12.88;6.40;;;;;;;;;;6304152;22;20188;-91
2023/06/19 01:06:57;;;;;;;10.70;5.80;;;;;;;;;;6303890;22;20177;-89
2023/06/19 01:10:04;;;;;;;13.07;6.32;;;;;;;;;;6304290;22;20153;-90
2023/06/19 01:13:17;;;;;;;12.98;6.20;;;;;;;;;;6303637;22;20173;-90
2023/06/19 01:16:28;;;;;;;9.70;5.85;;;;;;;;;;6303417;22;20204;-92
2023/06/19 01:19:34;;;;;;;9.65;5.82;;;;;;;;;;6302700;22;20223;-89
2023/06/19 01:22:43;;;;;;;10.80;6.00;;;;;;;;;;6301965;22;20635;-88
2023/06/19 01:25:48;;;;;;;12.07;6.82;;;;;;;;;;6304915;22;20165;-90
2023/06/19 01:28:54;;;;;;;10.93;6.90;;;;;;;;;;6303204;22;20165;-91
2023/06/19 01:32:02;;;;;;;10.70;6.35;;;;;;;;;;6302869;22;20216;-90
2023/06/19 01:35:09;;;;;;;8.98;5.82;;;;;;;;;;6302473;22;20161;-88
2023/06/19 01:38:16;;;;;;;10.00;5.53;;;;;;;;;;6300760;22;20164;-90
2023/06/19 01:41:23;;;;;;;10.75;5.90;;;;;;;;;;6302159;22;20177;-89
2023/06/19 01:44:28;;;;;;;10.27;5.68;;;;;;;;;;6303019;22;20253;-90
2023/06/19 01:47:34;;;;;;;9.07;5.65;;;;;;;;;;6303304;22;20156;-90
2023/06/19 01:50:42;;;;;;;11.18;5.68;;;;;;;;;;6302851;22;20173;-91
2023/06/19 01:53:49;;;;;;;10.05;5.55;;;;;;;;;;6300758;22;20165;-91
2023/06/19 01:56:59;;;;;;;9.23;5.75;;;;;;;;;;6301743;22;20229;-90
2023/06/19 02:00:05;;;;;;;12.38;5.45;;;;;;;;;;6301719;22;20203;-92
2023/06/19 02:03:19;;;;;;;10.93;5.72;;;;;;;;;;6320566;22;20247;-89
2023/06/19 02:06:24;;;;;;;12.30;5.88;;;;;;;;;;6302120;22;20182;-88
2023/06/19 02:09:30;;;;;;;13.07;5.90;;;;;;;;;;6300822;22;20215;-88
2023/06/19 02:12:36;;;;;;;13.27;6.22;;;;;;;;;;6302214;22;20207;-91
2023/06/19 02:15:41;;;;;;;10.27;5.85;;;;;;;;;;6301554;22;20165;-91
2023/06/19 02:19:19;;;;;;;9.77;5.85;;;;;;;;;;6300828;22;20230;-88
2023/06/19 02:22:24;;;;;;;9.45;5.88;;;;;;;;;;6299677;22;20189;-91
2023/06/19 02:25:30;;;;;;;9.60;5.70;;;;;;;;;;6301766;22;20149;-91
2023/06/19 02:28:35;;;;;;;11.00;5.88;;;;;;;;;;6303067;22;20160;-90
2023/06/19 02:31:40;;;;;;;10.50;5.88;;;;;;;;;;6303657;22;20180;-88
2023/06/19 02:34:46;;;;;;;10.55;5.55;;;;;;;;;;6303165;22;20168;-89
2023/06/19 02:37:51;;;;;;;9.52;5.57;;;;;;;;;;6302103;22;20161;-91
2023/06/19 02:41:01;;;;;;;11.07;6.13;;;;;;;;;;6302660;22;20173;-89
2023/06/19 02:44:06;;;;;;;9.30;5.88;;;;;;;;;;6303000;22;20161;-89
2023/06/19 02:47:11;;;;;;;10.50;5.82;;;;;;;;;;6302985;22;20613;-88
2023/06/19 02:50:17;;;;;;;8.57;5.75;;;;;;;;;;6303353;22;20268;-90
2023/06/19 02:53:22;;;;;;;9.18;5.40;;;;;;;;;;6303637;22;20208;-91
2023/06/19 03:00:49;;;;;;;9.95;5.88;;;;;;;;;;6323325;22;20647;-89
2023/06/19 03:03:55;;;;;;;9.38;5.97;;;;;;;;;;6301871;22;20538;-89
2023/06/19 03:07:00;;;;;;;9.45;5.60;;;;;;;;;;6302138;22;20169;-89
2023/06/19 03:10:05;;;;;;;12.70;5.88;;;;;;;;;;6302680;22;20169;-89
2023/06/19 03:13:10;;;;;;;9.48;5.65;;;;;;;;;;6303618;22;20546;-87
2023/06/19 03:16:17;;;;;;;9.75;5.43;;;;;;;;;;6303823;22;20677;-89
2023/06/19 03:19:23;;;;;;;9.85;5.72;;;;;;;;;;6304449;22;20156;-89
2023/06/19 03:22:29;;;;;;;9.48;5.78;;;;;;;;;;6304268;22;20193;-89
2023/06/19 03:25:35;;;;;;;12.32;6.35;;;;;;;;;;6304600;22;20216;-88
2023/06/19 03:28:41;;;;;;;13.00;5.85;;;;;;;;;;6302968;22;20212;-88
2023/06/19 03:31:50;;;;;;;15.95;6.97;;;;;;;;;;6306245;22;20211;-89
2023/06/19 03:34:56;;;;;;;9.48;5.50;;;;;;;;;;6304572;22;20643;-91
2023/06/19 03:38:02;;;;;;;11.88;6.13;;;;;;;;;;6304228;22;20169;-89
2023/06/19 03:41:09;;;;;;;11.50;6.05;;;;;;;;;;6303575;22;20161;-89
2023/06/19 03:44:14;;;;;;;13.07;6.35;;;;;;;;;;6303150;22;20165;-90
2023/06/19 03:47:20;;;;;;;14.15;6.63;;;;;;;;;;6304305;22;20199;-88
2023/06/19 03:50:25;;;;;;;14.38;6.97;;;;;;;;;;6305028;22;20169;-91
2023/06/19 03:53:30;;;;;;;9.82;6.43;;;;;;;;;;6304192;22;20241;-91
2023/06/19 03:56:39;;;;;;;13.20;7.38;;;;;;;;;;6306499;22;20146;-90
2023/06/19 03:59:44;;;;;;;13.88;7.15;;;;;;;;;;6304903;22;20170;-90
2023/06/19 04:03:03;;;;;;;13.45;6.57;;;;;;;;;;6304503;22;20231;-89
2023/06/19 04:06:08;;;;;;;11.18;6.20;;;;;;;;;;6304023;22;20165;-89
2023/06/19 04:09:17;;;;;;;12.98;7.32;;;;;;;;;;6301682;22;20231;-88
2023/06/19 04:12:23;;;;;;;11.77;6.38;;;;;;;;;;6302997;22;20544;-88
2023/06/19 04:15:28;;;;;;;13.13;6.55;;;;;;;;;;6299281;22;20208;-89
2023/06/19 04:18:35;;;;;;;10.52;6.22;;;;;;;;;;6302045;22;20674;-91
2023/06/19 04:21:43;;;;;;;12.38;7.10;;;;;;;;;;6303428;22;20244;-88
2023/06/19 04:24:48;;;;;;;12.77;6.47;;;;;;;;;;6302347;22;20212;-91
2023/06/19 04:27:53;;;;;;;13.50;6.40;;;;;;;;;;6304616;22;20169;-91
2023/06/19 04:31:00;;;;;;;12.10;6.70;;;;;;;;;;6303906;22;20176;-90
2023/06/19 04:34:07;;;;;;;12.32;6.78;;;;;;;;;;6304748;22;20172;-90
2023/06/19 04:37:12;;;;;;;14.88;6.90;;;;;;;;;;6302144;22;20184;-89
2023/06/19 04:40:17;;;;;;;13.77;7.13;;;;;;;;;;6303266;22;20168;-87
2023/06/19 04:43:24;;;;;;;11.40;6.60;;;;;;;;;;6304743;22;20200;-90
2023/06/19 04:46:30;;;;;;;10.68;6.80;;;;;;;;;;6303352;22;20165;-92
2023/06/19 04:49:38;;;;;;;10.45;6.20;;;;;;;;;;6304073;22;20196;-87
2023/06/19 04:52:43;;;;;;;10.57;6.53;;;;;;;;;;6304872;22;20651;-91
2023/06/19 04:55:49;;;;;;;10.55;6.60;;;;;;;;;;6305250;22;20145;-91
2023/06/19 04:58:55;;;;;;;10.18;6.35;;;;;;;;;;6302551;22;20157;-93
2023/06/19 05:02:01;;;;;;;11.38;6.32;;;;;;;;;;6304048;22;20153;-90
2023/06/19 05:05:09;;;;;;;13.20;6.88;;;;;;;;;;6302358;22;20243;-90
2023/06/19 05:11:49;;;;;;;11.70;6.20;;;;;;;;;;6305694;22;20311;-90
2023/06/19 05:15:05;;;;;;;15.02;5.97;;;;;;;;;;6305319;22;20164;-89
2023/06/19 05:18:16;;;;;;;13.38;7.25;;;;;;;;;;6305538;22;20231;-91
2023/06/19 05:21:24;;;;;;;12.23;6.38;;;;;;;;;;6306832;22;20216;-90
2023/06/19 05:24:29;;;;;;;10.88;6.30;;;;;;;;;;6306364;22;20209;-90
2023/06/19 05:27:35;;;;;;;9.50;6.13;;;;;;;;;;6308381;22;20152;-89
2023/06/19 11:52:25;;;;;;;11.50;6.55;;;;;;;;;;6313298;22;20212;-92
2023/06/19 11:55:31;;;;;;;12.45;6.53;;;;;;;;;;6305201;22;20159;-90
2023/06/19 11:58:47;;;;;;;8.93;6.32;;;;;;;;;;6306593;22;20214;-90
2023/06/19 12:01:52;;;;;;;11.95;6.07;;;;;;;;;;6307793;22;20208;-92
2023/06/19 12:04:57;;;;;;;8.50;6.40;;;;;;;;;;6307126;22;20295;-90
2023/06/19 12:08:04;;;;;;;10.35;6.32;;;;;;;;;;6306094;22;20163;-90
2023/06/19 12:11:10;;;;;;;11.52;6.32;;;;;;;;;;6306821;22;20152;-88
2023/06/19 12:14:15;;;;;;;13.90;7.47;;;;;;;;;;6306419;22;20191;-90
2023/06/19 12:17:20;;;;;;;8.77;6.20;;;;;;;;;;6306499;22;20657;-90
2023/06/19 12:20:56;;;;;;;17.60;6.68;;;;;;;;;;6305807;22;20172;-90
2023/06/19 12:24:03;;;;;;;13.85;7.03;;;;;;;;;;6307924;22;20164;-90
2023/06/19 12:27:09;;;;;;;11.48;6.47;;;;;;;;;;6325601;22;20164;-90
2023/06/19 12:30:17;;;;;;;9.65;6.90;;;;;;;;;;6308228;22;20148;-89
2023/06/19 12:33:24;;;;;;;13.10;6.78;;;;;;;;;;6307186;22;20219;-89
2023/06/19 12:36:31;;;;;;;11.63;6.93;;;;;;;;;;6306290;22;20159;-92
2023/06/19 12:39:37;;;;;;;9.35;6.68;;;;;;;;;;6307678;22;20164;-90
2023/06/19 12:42:43;;;;;;;13.82;6.38;;;;;;;;;;6306374;22;20164;-89
2023/06/19 12:45:48;;;;;;;11.68;6.43;;;;;;;;;;6306678;22;20188;-89
2023/06/19 12:48:54;;;;;;;18.33;7.30;;;;;;;;;;6305158;22;20165;-91
2023/06/19 12:51:59;;;;;;;33.55;7.10;;;;;;;;;;6307847;22;20183;-88
2023/06/19 12:55:07;;;;;;;10.27;6.88;;;;;;;;;;6307324;22;20161;-91
2023/06/19 12:58:16;;;;;;;15.00;7.28;;;;;;;;;;6304697;22;20458;-90
2023/06/19 13:01:22;;;;;;;9.75;6.80;;;;;;;;;;6306986;22;20213;-90
2023/06/19 13:04:27;;;;;;;9.30;6.72;;;;;;;;;;6306602;22;20216;-91
2023/06/19 13:07:32;;;;;;;10.85;6.88;;;;;;;;;;6306374;22;20295;-89
2023/06/19 13:10:40;;;;;;;10.43;6.95;;;;;;;;;;6305079;22;20165;-89
2023/06/19 13:13:47;;;;;;;12.27;6.72;;;;;;;;;;6304749;22;20197;-91
2023/06/19 13:16:59;;;;;;;15.45;7.18;;;;;;;;;;6304498;22;20176;-90
2023/06/19 13:24:19;;;;;;;14.23;7.32;;;;;;;;;;6324544;22;20172;-88
2023/06/19 13:27:26;;;;;;;14.50;7.40;;;;;;;;;;6305493;22;20180;-89
2023/06/19 13:30:32;;;;;;;10.32;6.90;;;;;;;;;;6305328;22;20169;-89
2023/06/19 13:33:37;;;;;;;11.77;6.75;;;;;;;;;;6306073;22;20184;-89
2023/06/19 13:36:42;;;;;;;11.95;7.15;;;;;;;;;;6307167;22;20153;-89
2023/06/19 13:39:48;;;;;;;8.90;6.53;;;;;;;;;;6307086;22;20184;-90
2023/06/19 13:42:55;;;;;;;9.70;6.30;;;;;;;;;;6304054;22;20164;-90
2023/06/19 13:46:00;;;;;;;11.43;6.28;;;;;;;;;;6305384;22;20195;-89
2023/06/19 13:49:05;;;;;;;10.18;6.72;;;;;;;;;;6303776;22;20187;-91
2023/06/19 13:52:11;;;;;;;10.27;6.70;;;;;;;;;;6302916;22;20271;-92
2023/06/19 13:55:17;;;;;;;14.23;6.82;;;;;;;;;;6302518;22;20214;-90
2023/06/19 13:58:24;;;;;;;9.43;6.45;;;;;;;;;;6303517;22;20228;-88
2023/06/19 14:01:29;;;;;;;8.77;5.97;;;;;;;;;;6306424;22;20257;-89
2023/06/19 14:04:34;;;;;;;10.15;6.47;;;;;;;;;;6305909;22;20164;-89
2023/06/19 14:07:39;;;;;;;10.25;6.20;;;;;;;;;;6307589;22;20592;-91
2023/06/19 14:10:44;;;;;;;11.05;6.25;;;;;;;;;;6306330;22;20219;-92
2023/06/19 14:13:51;;;;;;;11.52;6.60;;;;;;;;;;6302940;22;20191;-89
2023/06/19 14:21:12;;;;;;;10.57;6.20;;;;;;;;;;6322797;22;20172;-89
2023/06/19 14:24:18;;;;;;;9.05;6.40;;;;;;;;;;6304095;22;20161;-88
2023/06/19 14:27:23;;;;;;;12.82;6.80;;;;;;;;;;6306183;22;20285;-88
2023/06/19 14:30:30;;;;;;;11.02;6.82;;;;;;;;;;6306579;22;20172;-88
2023/06/19 14:33:36;;;;;;;9.90;6.65;;;;;;;;;;6307522;22;20627;-90
2023/06/19 14:36:45;;;;;;;9.93;6.53;;;;;;;;;;6308421;22;20236;-89
2023/06/19 14:39:54;;;;;;;8.48;5.90;;;;;;;;;;6306631;22;20164;-89
2023/06/19 14:42:59;;;;;;;10.07;6.65;;;;;;;;;;6307929;22;20169;-88
2023/06/19 14:46:07;;;;;;;10.73;6.30;;;;;;;;;;6306121;22;20475;-88
2023/06/19 14:49:13;;;;;;;9.38;6.43;;;;;;;;;;6307775;22;20163;-88
2023/06/19 14:52:20;;;;;;;11.40;7.30;;;;;;;;;;6303774;22;20248;-90
2023/06/19 14:55:26;;;;;;;12.30;7.50;;;;;;;;;;6302894;22;20715;-89
2023/06/19 14:58:34;;;;;;;9.68;6.68;;;;;;;;;;6304850;22;20173;-91
2023/06/19 15:01:41;;;;;;;12.55;7.53;;;;;;;;;;6304043;22;20168;-88
2023/06/19 15:04:46;;;;;;;10.00;6.70;;;;;;;;;;6307054;22;20252;-90
2023/06/19 15:07:51;;;;;;;10.13;6.63;;;;;;;;;;6307869;22;20202;-89
2023/06/19 15:10:57;;;;;;;10.98;7.53;;;;;;;;;;6308125;22;20217;-91
2023/06/19 15:14:02;;;;;;;14.02;7.20;;;;;;;;;;6307169;22;20172;-89
2023/06/19 15:17:09;;;;;;;10.60;6.80;;;;;;;;;;6306030;22;20169;-88
2023/06/19 15:20:16;;;;;;;10.73;6.38;;;;;;;;;;6309372;22;20180;-90
2023/06/19 15:23:21;;;;;;;11.13;6.80;;;;;;;;;;6307410;22;20192;-90
2023/06/19 15:26:27;;;;;;;11.77;7.05;;;;;;;;;;6305009;22;20496;-88
2023/06/19 15:29:32;;;;;;;9.57;6.72;;;;;;;;;;6305537;22;20188;-90
2023/06/19 15:32:40;;;;;;;9.85;6.80;;;;;;;;;;6305150;22;20211;-90
2023/06/19 15:35:47;;;;;;;10.35;6.88;;;;;;;;;;6307064;22;20161;-88
2023/06/19 15:38:53;;;;;;;10.02;6.55;;;;;;;;;;6307557;22;20172;-87
2023/06/19 15:41:58;;;;;;;11.13;7.07;;;;;;;;;;6306619;22;20169;-89
2023/06/19 15:45:04;;;;;;;10.02;6.63;;;;;;;;;;6308671;22;20226;-91
2023/06/19 15:48:11;;;;;;;11.88;6.65;;;;;;;;;;6306761;22;20277;-89
2023/06/19 15:51:16;;;;;;;11.55;6.75;;;;;;;;;;6306449;22;20189;-88
2023/06/19 15:54:23;;;;;;;11.10;6.85;;;;;;;;;;6306711;22;20194;-88
2023/06/19 16:01:17;;;;;;;10.00;6.75;;;;;;;;;;6305449;22;20158;-89
2023/06/19 16:04:25;;;;;;;10.68;6.35;;;;;;;;;;6307296;22;20194;-89
2023/06/19 16:07:30;;;;;;;10.63;6.53;;;;;;;;;;6306756;22;20157;-87
2023/06/19 16:10:36;;;;;;;14.60;7.15;;;;;;;;;;6308894;22;20185;-88
2023/06/19 16:13:42;;;;;;;10.90;6.60;;;;;;;;;;6306561;22;20153;-89
2023/06/19 16:16:47;;;;;;;11.95;7.55;;;;;;;;;;6305050;22;20172;-88
2023/06/19 16:19:56;;;;;;;9.50;6.82;;;;;;;;;;6302764;22;20153;-89
2023/06/19 16:23:01;;;;;;;9.82;6.40;;;;;;;;;;6305464;22;20192;-89
2023/06/19 16:26:06;;;;;;;10.02;6.65;;;;;;;;;;6307881;22;20165;-90
2023/06/19 16:29:14;;;;;;;10.15;6.65;;;;;;;;;;6307920;22;20164;-90
2023/06/19 16:32:19;;;;;;;9.48;6.70;;;;;;;;;;6308171;22;20211;-89
2023/06/19 16:35:26;;;;;;;10.73;6.30;;;;;;;;;;6305352;22;20192;-89
2023/06/19 16:38:31;;;;;;;10.05;5.72;;;;;;;;;;6305905;22;20181;-91
2023/06/19 16:41:41;;;;;;;9.93;6.25;;;;;;;;;;6306890;22;20208;-89
2023/06/19 16:44:46;;;;;;;10.25;6.20;;;;;;;;;;6304359;22;20200;-89
2023/06/19 16:47:52;;;;;;;8.27;5.80;;;;;;;;;;6304972;22;20227;-90
2023/06/19 16:50:59;;;;;;;11.38;6.35;;;;;;;;;;6305082;22;20252;-90
2023/06/19 16:54:04;;;;;;;14.48;6.53;;;;;;;;;;6303309;22;20647;-89
2023/06/19 16:57:11;;;;;;;11.52;6.75;;;;;;;;;;6304604;22;20184;-90
2023/06/19 17:00:17;;;;;;;11.75;6.43;;;;;;;;;;6305039;22;20168;-88
2023/06/19 17:03:24;;;;;;;12.82;6.68;;;;;;;;;;6307123;22;20242;-89
2023/06/19 17:06:31;;;;;;;15.75;6.70;;;;;;;;;;6305182;22;20172;-89
2023/06/19 17:09:37;;;;;;;10.13;6.72;;;;;;;;;;6308281;22;20157;-89
2023/06/19 17:12:43;;;;;;;14.38;6.30;;;;;;;;;;6312094;22;20492;-89
2023/06/19 17:15:48;;;;;;;18.05;8.88;;;;;;;;;;6309052;22;20513;-89
2023/06/19 17:18:57;;;;;;;11.60;6.40;;;;;;;;;;6309045;22;20152;-89
2023/06/19 17:25:40;;;;;;;14.98;6.60;;;;;;;;;;6304334;22;20176;-88
2023/06/19 17:28:57;;;;;;;13.85;7.15;;;;;;;;;;6307428;22;20169;-89
2023/06/19 17:32:03;;;;;;;12.23;6.72;;;;;;;;;;6308900;22;20633;-90
2023/06/19 17:35:11;;;;;;;12.63;6.60;;;;;;;;;;6308325;22;20269;-88
2023/06/19 17:38:17;;;;;;;15.38;6.75;;;;;;;;;;6309301;22;20234;-89
2023/06/19 17:45:03;;;;;;;13.52;6.68;;;;;;;;;;6310161;22;20689;-90
2023/06/19 17:48:11;;;;;;;11.13;6.88;;;;;;;;;;6310777;22;20169;-90
2023/06/19 17:51:18;;;;;;;9.13;6.50;;;;;;;;;;6309955;22;20216;-89
2023/06/19 17:54:39;;;;;;;15.50;7.20;;;;;;;;;;6310228;22;20188;-88
2023/06/19 17:57:50;;;;;;;11.65;7.00;;;;;;;;;;6309268;22;20210;-90
2023/06/19 18:01:02;;;;;;;13.23;7.13;;;;;;;;;;6310306;22;20160;-89
2023/06/19 18:04:09;;;;;;;15.70;7.35;;;;;;;;;;6309904;22;20211;-88
2023/06/19 18:07:19;;;;;;;15.57;7.40;;;;;;;;;;6309181;22;20157;-87
2023/06/19 18:10:26;;;;;;;13.57;7.00;;;;;;;;;;6310386;22;20175;-88
2023/06/19 18:13:33;;;;;;;15.68;7.35;;;;;;;;;;6311354;22;20235;-91
2023/06/19 18:20:07;;;;;;;13.43;7.57;;;;;;;;;;6309066;22;20497;-89
2023/06/19 18:23:13;;;;;;;16.10;7.60;;;;;;;;;;6309220;22;20145;-90
2023/06/19 18:26:19;;;;;;;11.73;7.28;;;;;;;;;;6307818;22;20246;-90
2023/06/19 18:29:30;;;;;;;10.93;7.15;;;;;;;;;;6310553;22;20235;-92
2023/06/19 18:32:38;;;;;;;14.35;7.53;;;;;;;;;;6309430;22;20173;-87
2023/06/19 18:35:45;;;;;;;12.65;7.45;;;;;;;;;;6327129;22;20172;-90
2023/06/19 18:38:51;;;;;;;16.60;8.07;;;;;;;;;;6308486;22;20239;-90
2023/06/19 18:41:57;;;;;;;15.70;8.15;;;;;;;;;;6309134;22;20173;-89
2023/06/19 18:45:05;;;;;;;12.10;6.95;;;;;;;;;;6309049;22;20165;-91
2023/06/19 18:48:12;;;;;;;10.77;7.25;;;;;;;;;;6305219;22;20211;-89
2023/06/19 18:51:19;;;;;;;14.82;7.65;;;;;;;;;;6305207;22;20212;-90
2023/06/19 18:54:27;;;;;;;19.08;7.88;;;;;;;;;;6305893;22;20169;-90
2023/06/19 18:57:33;;;;;;;13.02;8.05;;;;;;;;;;6308633;22;20478;-88
2023/06/19 19:00:39;;;;;;;15.57;8.40;;;;;;;;;;6308845;22;20544;-90
2023/06/19 19:03:48;;;;;;;13.98;8.13;;;;;;;;;;6308441;22;20180;-89
2023/06/19 19:06:55;;;;;;;14.90;8.10;;;;;;;;;;6310240;22;20148;-88
2023/06/19 19:10:01;;;;;;;16.55;7.90;;;;;;;;;;6311112;22;20161;-90
2023/06/19 19:13:12;;;;;;;13.63;8.02;;;;;;;;;;6313553;22;20204;-86
2023/06/19 19:16:43;;;;;;;13.02;8.68;;;;;;;;;;6308885;22;20193;-88
2023/06/19 19:19:52;;;;;;;15.07;9.55;;;;;;;;;;6311610;22;20149;-90
2023/06/19 19:23:00;;;;;;;16.80;9.63;;;;;;;;;;6312646;22;20165;-91
2023/06/19 19:26:14;;;;;;;12.48;8.20;;;;;;;;;;6313709;22;20164;-88
2023/06/19 19:29:26;;;;;;;12.57;8.70;;;;;;;;;;6331550;22;20164;-89
2023/06/19 19:32:32;;;;;;;14.60;8.48;;;;;;;;;;6310922;22;20187;-90
2023/06/19 19:35:40;;;;;;;15.52;8.98;;;;;;;;;;6312089;22;20228;-90
2023/06/19 19:38:46;;;;;;;22.15;9.02;;;;;;;;;;6311692;22;20166;-89
2023/06/19 19:41:52;;;;;;;12.82;8.73;;;;;;;;;;6311710;22;20203;-90
2023/06/19 19:44:59;;;;;;;14.50;8.45;;;;;;;;;;6311332;22;20156;-89
2023/06/19 19:48:07;;;;;;;14.18;8.80;;;;;;;;;;6312175;22;20210;-89
2023/06/19 19:51:15;;;;;;;15.13;9.02;;;;;;;;;;6311531;22;20177;-88
2023/06/19 19:54:20;;;;;;;12.95;8.90;;;;;;;;;;6311938;22;20168;-89
2023/06/19 19:57:32;;;;;;;15.70;9.55;;;;;;;;;;6311911;22;20173;-89
2023/06/19 20:00:37;;;;;;;13.32;8.43;;;;;;;;;;6310282;22;20161;-90
2023/06/19 20:03:45;;;;;;;13.00;9.63;;;;;;;;;;6311141;22;20181;-88
2023/06/19 20:07:06;;;;;;;13.65;8.90;;;;;;;;;;6308901;22;20169;-87
2023/06/19 20:10:13;;;;;;;15.68;9.45;;;;;;;;;;6310081;22;20172;-88
2023/06/19 20:13:19;;;;;;;18.20;10.48;;;;;;;;;;6309000;22;20165;-90
2023/06/19 20:16:26;;;;;;;13.77;8.77;;;;;;;;;;6311041;22;20196;-89
2023/06/19 20:19:33;;;;;;;14.73;9.45;;;;;;;;;;6311408;22;20204;-87
2023/06/19 20:22:40;;;;;;;13.13;9.25;;;;;;;;;;6313030;22;20164;-89
2023/06/19 20:25:55;;;;;;;13.45;9.20;;;;;;;;;;6312828;22;20183;-89
2023/06/19 20:29:04;;;;;;;15.63;9.38;;;;;;;;;;6311769;22;20261;-91
2023/06/19 20:32:10;;;;;;;15.05;9.90;;;;;;;;;;6313690;22;20157;-89
2023/06/19 20:35:16;;;;;;;13.18;8.75;;;;;;;;;;6313424;22;20211;-89
2023/06/19 20:45:34;;;;;;;16.45;9.45;;;;;;;;;;6309055;22;20185;-91
2023/06/19 20:48:40;;;;;;;16.75;9.35;;;;;;;;;;6309667;22;20166;-89
2023/06/19 20:51:45;;;;;;;13.15;9.23;;;;;;;;;;6307800;22;20189;-89
2023/06/19 20:54:50;;;;;;;14.75;9.38;;;;;;;;;;6307773;22;20191;-87
2023/06/19 20:58:04;;;;;;;17.05;9.93;;;;;;;;;;6306848;22;20168;-89
2023/06/19 21:01:09;;;;;;;15.38;9.45;;;;;;;;;;6307048;22;20604;-87
2023/06/19 21:04:15;;;;;;;19.10;10.50;;;;;;;;;;6305682;22;20165;-89
2023/06/19 21:07:20;;;;;;;15.18;9.60;;;;;;;;;;6304567;22;20161;-88
2023/06/19 21:10:25;;;;;;;19.10;10.75;;;;;;;;;;6305286;22;20160;-88
2023/06/19 21:13:32;;;;;;;17.23;10.75;;;;;;;;;;6303387;22;20169;-90
2023/06/19 21:16:38;;;;;;;19.05;11.90;;;;;;;;;;6302319;22;20270;-88
2023/06/19 21:19:45;;;;;;;17.45;11.35;;;;;;;;;;6303453;22;20181;-89
2023/06/19 21:22:51;;;;;;;17.83;11.10;;;;;;;;;;6305299;22;20149;-90
2023/06/19 21:25:57;;;;;;;18.73;12.00;;;;;;;;;;6307266;22;20157;-89
2023/06/19 21:29:04;;;;;;;19.38;12.25;;;;;;;;;;6308255;22;20163;-89
2023/06/19 21:32:09;;;;;;;17.75;10.73;;;;;;;;;;6306765;22;20215;-90
2023/06/19 21:35:15;;;;;;;16.55;10.68;;;;;;;;;;6308188;22;20173;-88
2023/06/19 21:38:20;;;;;;;19.10;10.70;;;;;;;;;;6308350;22;20161;-88
2023/06/19 21:41:26;;;;;;;16.90;9.82;;;;;;;;;;6305853;22;20161;-88
2023/06/19 21:44:34;;;;;;;15.10;9.80;;;;;;;;;;6308503;22;20597;-87
2023/06/19 21:47:39;;;;;;;17.83;10.63;;;;;;;;;;6308289;22;20172;-90
2023/06/19 21:50:47;;;;;;;15.35;10.43;;;;;;;;;;6308719;22;20234;-90
2023/06/19 21:53:53;;;;;;;18.55;10.70;;;;;;;;;;6307949;22;20905;-89
2023/06/19 21:57:04;;;;;;;14.93;10.68;;;;;;;;;;6305727;22;20706;-88
2023/06/19 22:00:13;;;;;;;19.17;11.38;;;;;;;;;;6307963;22;20233;-91
2023/06/19 22:03:21;;;;;;;18.55;11.73;;;;;;;;;;6306977;22;20208;-90
2023/06/19 22:06:26;;;;;;;18.85;11.20;;;;;;;;;;6304668;22;20152;-92
2023/06/19 22:09:32;;;;;;;16.25;11.18;;;;;;;;;;6306635;22;20177;-90
2023/06/19 22:12:38;;;;;;;19.92;12.40;;;;;;;;;;6305655;22;20197;-89
2023/06/19 22:15:46;;;;;;;15.82;11.40;;;;;;;;;;6305860;22;20259;-89
2023/06/19 22:18:54;;;;;;;18.20;10.98;;;;;;;;;;6304851;22;20208;-88
2023/06/19 22:21:59;;;;;;;19.30;11.10;;;;;;;;;;6304889;22;20165;-88
2023/06/19 22:25:05;;;;;;;20.05;11.40;;;;;;;;;;6304518;22;20220;-88
2023/06/19 22:28:11;;;;;;;20.40;11.23;;;;;;;;;;6305857;22;20164;-90
2023/06/19 22:31:16;;;;;;;19.27;11.70;;;;;;;;;;6304038;22;20165;-87
2023/06/19 22:34:22;;;;;;;20.20;10.82;;;;;;;;;;6304372;22;20164;-89
2023/06/19 22:37:32;;;;;;;17.40;11.40;;;;;;;;;;6302967;22;20197;-88
2023/06/19 22:40:37;;;;;;;18.88;12.15;;;;;;;;;;6303339;22;20169;-90
2023/06/19 22:43:42;;;;;;;16.45;11.07;;;;;;;;;;6303949;22;20501;-89
2023/06/19 22:46:47;;;;;;;19.23;12.23;;;;;;;;;;6305356;22;20169;-90
2023/06/19 22:49:54;;;;;;;20.55;12.05;;;;;;;;;;6307670;22;20215;-87
2023/06/19 22:52:59;;;;;;;19.42;12.07;;;;;;;;;;6308501;22;20603;-89
2023/06/19 22:56:26;;;;;;;22.38;12.40;;;;;;;;;;6307839;22;20192;-88
2023/06/19 22:59:31;;;;;;;19.90;12.48;;;;;;;;;;6310207;22;20148;-88
2023/06/19 23:02:36;;;;;;;22.25;12.00;;;;;;;;;;6305606;22;20177;-91
2023/06/19 23:05:43;;;;;;;16.15;11.25;;;;;;;;;;6306085;22;20168;-87
2023/06/19 23:08:49;;;;;;;25.42;13.70;;;;;;;;;;6305413;22;20157;-89
2023/06/19 23:12:03;;;;;;;20.27;12.35;;;;;;;;;;6305981;22;20589;-88
2023/06/19 23:15:17;;;;;;;23.15;13.45;;;;;;;;;;6303014;22;20194;-88
2023/06/19 23:18:22;;;;;;;23.23;13.50;;;;;;;;;;6303910;22;20157;-89
2023/06/19 23:21:29;;;;;;;20.27;12.90;;;;;;;;;;6303022;22;20165;-90
2023/06/19 23:24:35;;;;;;;17.95;11.40;;;;;;;;;;6305494;22;20164;-89
2023/06/19 23:27:40;;;;;;;19.90;12.20;;;;;;;;;;6326109;22;20152;-90
2023/06/19 23:30:50;;;;;;;18.42;11.90;;;;;;;;;;6307682;22;20193;-91
2023/06/19 23:34:00;;;;;;;18.80;12.43;;;;;;;;;;6305935;22;20153;-90
2023/06/19 23:37:06;;;;;;;20.73;12.95;;;;;;;;;;6303666;22;20201;-91
2023/06/19 23:40:12;;;;;;;20.48;12.48;;;;;;;;;;6305404;22;20257;-90
2023/06/19 23:43:18;;;;;;;18.67;12.55;;;;;;;;;;6313360;22;20168;-90
